sensor_id;sensor_type;location;lat;lon;timestamp;pressure;altitude;pressure_sealevel;temperature;humidity
84639;BME280;74869;51.924;5.712;2023-12-20T00:01:44;101596.03;;;5.65;95.57
84639;BME280;74869;51.924;5.712;2023-12-20T00:04:09;101600.94;;;5.69;95.25
84639;BME280;74869;51.924;5.712;2023-12-20T00:06:35;101592.25;;;5.73;95.38
84639;BME280;74869;51.924;5.712;2023-12-20T00:09:00;101591.66;;;5.83;95.30
84639;BME280;74869;51.924;5.712;2023-12-20T00:11:25;101589.81;;;5.83;95.63
84639;BME280;74869;51.924;5.712;2023-12-20T00:13:50;101605.00;;;5.83;94.64
84639;BME280;74869;51.924;5.712;2023-12-20T00:16:17;101600.38;;;5.78;94.97
84639;BME280;74869;51.924;5.712;2023-12-20T00:18:43;101604.22;;;5.82;95.08
84639;BME280;74869;51.924;5.712;2023-12-20T00:21:08;101592.59;;;5.77;95.21
84639;BME280;74869;51.924;5.712;2023-12-20T00:23:33;101599.53;;;5.78;95.01
84639;BME280;74869;51.924;5.712;2023-12-20T00:25:59;101592.47;;;5.72;94.79
84639;BME280;74869;51.924;5.712;2023-12-20T00:28:24;101590.28;;;5.69;95.14
84639;BME280;74869;51.924;5.712;2023-12-20T00:30:50;101585.06;;;5.62;94.38
84639;BME280;74869;51.924;5.712;2023-12-20T00:33:16;101581.66;;;5.55;95.07
84639;BME280;74869;51.924;5.712;2023-12-20T00:35:41;101591.72;;;5.53;95.11
84639;BME280;74869;51.924;5.712;2023-12-20T00:38:06;101578.72;;;5.45;94.83
84639;BME280;74869;51.924;5.712;2023-12-20T00:40:33;101588.13;;;5.47;95.02
84639;BME280;74869;51.924;5.712;2023-12-20T00:42:59;101592.28;;;5.43;94.91
84639;BME280;74869;51.924;5.712;2023-12-20T00:45:24;101592.13;;;5.38;94.59
84639;BME280;74869;51.924;5.712;2023-12-20T00:47:49;101584.03;;;5.33;94.97
84639;BME280;74869;51.924;5.712;2023-12-20T00:50:15;101593.03;;;5.32;94.71
84639;BME280;74869;51.924;5.712;2023-12-20T00:52:41;101585.97;;;5.26;95.32
84639;BME280;74869;51.924;5.712;2023-12-20T00:55:06;101588.88;;;5.24;95.03
84639;BME280;74869;51.924;5.712;2023-12-20T00:57:32;101580.72;;;5.19;94.51
84639;BME280;74869;51.924;5.712;2023-12-20T00:59:58;101576.22;;;5.20;94.32
84639;BME280;74869;51.924;5.712;2023-12-20T01:02:23;101577.41;;;5.24;94.25
84639;BME280;74869;51.924;5.712;2023-12-20T01:04:48;101581.09;;;5.23;94.78
84639;BME280;74869;51.924;5.712;2023-12-20T01:07:15;101592.09;;;5.27;94.90
84639;BME280;74869;51.924;5.712;2023-12-20T01:09:40;101584.31;;;5.25;94.57
84639;BME280;74869;51.924;5.712;2023-12-20T01:12:05;101578.88;;;5.20;94.69
84639;BME280;74869;51.924;5.712;2023-12-20T01:14:31;101577.16;;;5.25;94.33
84639;BME280;74869;51.924;5.712;2023-12-20T01:16:56;101570.81;;;5.27;94.73
84639;BME280;74869;51.924;5.712;2023-12-20T01:19:21;101568.59;;;5.23;94.40
84639;BME280;74869;51.924;5.712;2023-12-20T01:21:47;101570.22;;;5.24;94.29
84639;BME280;74869;51.924;5.712;2023-12-20T01:24:13;101573.69;;;5.25;94.74
84639;BME280;74869;51.924;5.712;2023-12-20T01:26:38;101571.47;;;5.22;94.35
84639;BME280;74869;51.924;5.712;2023-12-20T01:29:03;101578.56;;;5.28;94.74
84639;BME280;74869;51.924;5.712;2023-12-20T01:31:29;101581.22;;;5.28;94.49
84639;BME280;74869;51.924;5.712;2023-12-20T01:33:54;101577.75;;;5.28;94.15
84639;BME280;74869;51.924;5.712;2023-12-20T01:36:19;101558.25;;;5.15;94.91
84639;BME280;74869;51.924;5.712;2023-12-20T01:38:45;101584.03;;;5.33;94.07
84639;BME280;74869;51.924;5.712;2023-12-20T01:41:10;101592.00;;;5.33;94.25
84639;BME280;74869;51.924;5.712;2023-12-20T01:43:35;101577.75;;;5.28;94.11
84639;BME280;74869;51.924;5.712;2023-12-20T01:46:01;101577.53;;;5.29;94.09
84639;BME280;74869;51.924;5.712;2023-12-20T01:48:27;101580.63;;;5.26;94.31
84639;BME280;74869;51.924;5.712;2023-12-20T01:50:53;101589.66;;;5.25;94.33
84639;BME280;74869;51.924;5.712;2023-12-20T01:53:20;101590.44;;;5.14;94.17
84639;BME280;74869;51.924;5.712;2023-12-20T01:55:49;101586.84;;;5.20;94.38
84639;BME280;74869;51.924;5.712;2023-12-20T01:58:15;101593.94;;;5.26;94.67
84639;BME280;74869;51.924;5.712;2023-12-20T02:00:42;101590.84;;;5.29;94.12
84639;BME280;74869;51.924;5.712;2023-12-20T02:03:08;101586.91;;;5.32;94.48
84639;BME280;74869;51.924;5.712;2023-12-20T02:05:35;101582.53;;;5.37;94.42
84639;BME280;74869;51.924;5.712;2023-12-20T02:08:00;101585.91;;;5.44;94.00
84639;BME280;74869;51.924;5.712;2023-12-20T02:10:26;101590.66;;;5.42;94.11
84639;BME280;74869;51.924;5.712;2023-12-20T02:12:52;101602.03;;;5.49;94.62
84639;BME280;74869;51.924;5.712;2023-12-20T02:15:17;101597.97;;;5.47;94.46
84639;BME280;74869;51.924;5.712;2023-12-20T02:17:43;101598.06;;;5.40;94.46
84639;BME280;74869;51.924;5.712;2023-12-20T02:20:09;101580.31;;;5.34;94.37
84639;BME280;74869;51.924;5.712;2023-12-20T02:22:35;101582.53;;;5.37;93.84
84639;BME280;74869;51.924;5.712;2023-12-20T02:25:01;101593.75;;;5.39;94.70
84639;BME280;74869;51.924;5.712;2023-12-20T02:27:27;101578.91;;;5.32;94.21
84639;BME280;74869;51.924;5.712;2023-12-20T02:29:54;101587.16;;;5.30;93.94
84639;BME280;74869;51.924;5.712;2023-12-20T02:32:20;101589.56;;;5.32;94.25
84639;BME280;74869;51.924;5.712;2023-12-20T02:34:47;101574.06;;;5.29;94.46
84639;BME280;74869;51.924;5.712;2023-12-20T02:37:13;101574.41;;;5.32;94.13
84639;BME280;74869;51.924;5.712;2023-12-20T02:39:39;101564.81;;;5.31;94.86
84639;BME280;74869;51.924;5.712;2023-12-20T02:42:05;101565.84;;;5.30;94.52
84639;BME280;74869;51.924;5.712;2023-12-20T02:44:31;101564.56;;;5.33;93.82
84639;BME280;74869;51.924;5.712;2023-12-20T02:46:56;101555.19;;;5.30;94.64
84639;BME280;74869;51.924;5.712;2023-12-20T02:49:21;101565.38;;;5.33;93.85
84639;BME280;74869;51.924;5.712;2023-12-20T02:51:47;101554.84;;;5.38;94.57
84639;BME280;74869;51.924;5.712;2023-12-20T02:54:12;101557.09;;;5.41;93.92
84639;BME280;74869;51.924;5.712;2023-12-20T02:56:37;101563.56;;;5.45;93.83
84639;BME280;74869;51.924;5.712;2023-12-20T02:59:03;101574.94;;;5.52;94.10
84639;BME280;74869;51.924;5.712;2023-12-20T03:01:31;101567.53;;;5.54;93.68
84639;BME280;74869;51.924;5.712;2023-12-20T03:03:56;101560.59;;;5.53;94.08
84639;BME280;74869;51.924;5.712;2023-12-20T03:06:22;101556.88;;;5.54;93.93
84639;BME280;74869;51.924;5.712;2023-12-20T03:08:47;101553.28;;;5.49;94.32
84639;BME280;74869;51.924;5.712;2023-12-20T03:11:12;101542.72;;;5.42;94.17
84639;BME280;74869;51.924;5.712;2023-12-20T03:13:38;101537.03;;;5.39;93.73
84639;BME280;74869;51.924;5.712;2023-12-20T03:16:10;101533.66;;;5.32;93.82
84639;BME280;74869;51.924;5.712;2023-12-20T03:18:35;101518.94;;;5.17;93.84
84639;BME280;74869;51.924;5.712;2023-12-20T03:21:02;101540.13;;;5.24;94.43
84639;BME280;74869;51.924;5.712;2023-12-20T03:23:29;101542.44;;;5.32;94.69
84639;BME280;74869;51.924;5.712;2023-12-20T03:25:56;101533.44;;;5.33;94.07
84639;BME280;74869;51.924;5.712;2023-12-20T03:28:21;101524.88;;;5.31;94.61
84639;BME280;74869;51.924;5.712;2023-12-20T03:30:48;101535.06;;;5.34;93.90
84639;BME280;74869;51.924;5.712;2023-12-20T03:33:13;101539.22;;;5.30;93.98
84639;BME280;74869;51.924;5.712;2023-12-20T03:35:39;101537.59;;;5.29;94.18
84639;BME280;74869;51.924;5.712;2023-12-20T03:38:04;101537.22;;;5.25;94.33
84639;BME280;74869;51.924;5.712;2023-12-20T03:40:29;101541.28;;;5.28;94.35
84639;BME280;74869;51.924;5.712;2023-12-20T03:42:55;101534.94;;;5.29;94.05
84639;BME280;74869;51.924;5.712;2023-12-20T03:45:20;101528.44;;;5.25;94.23
84639;BME280;74869;51.924;5.712;2023-12-20T03:47:45;101526.34;;;5.27;94.45
84639;BME280;74869;51.924;5.712;2023-12-20T03:50:10;101530.06;;;5.38;94.21
84639;BME280;74869;51.924;5.712;2023-12-20T03:52:36;101534.75;;;5.42;93.95
84639;BME280;74869;51.924;5.712;2023-12-20T03:55:01;101532.41;;;5.46;94.29
84639;BME280;74869;51.924;5.712;2023-12-20T03:57:26;101535.22;;;5.51;94.36
84639;BME280;74869;51.924;5.712;2023-12-20T03:59:52;101525.38;;;5.51;94.10
84639;BME280;74869;51.924;5.712;2023-12-20T04:02:17;101531.88;;;5.55;94.52
84639;BME280;74869;51.924;5.712;2023-12-20T04:04:44;101542.66;;;5.60;93.84
84639;BME280;74869;51.924;5.712;2023-12-20T04:07:09;101536.28;;;5.61;94.08
84639;BME280;74869;51.924;5.712;2023-12-20T04:09:34;101524.00;;;5.60;93.87
84639;BME280;74869;51.924;5.712;2023-12-20T04:12:00;101530.38;;;5.59;94.09
84639;BME280;74869;51.924;5.712;2023-12-20T04:14:25;101524.91;;;5.54;93.60
84639;BME280;74869;51.924;5.712;2023-12-20T04:16:50;101536.03;;;5.51;93.78
84639;BME280;74869;51.924;5.712;2023-12-20T04:19:16;101530.25;;;5.54;93.73
84639;BME280;74869;51.924;5.712;2023-12-20T04:21:41;101522.47;;;5.53;93.58
84639;BME280;74869;51.924;5.712;2023-12-20T04:24:06;101519.94;;;5.58;93.91
84639;BME280;74869;51.924;5.712;2023-12-20T04:26:32;101523.53;;;5.63;94.39
84639;BME280;74869;51.924;5.712;2023-12-20T04:28:57;101525.16;;;5.64;94.05
84639;BME280;74869;51.924;5.712;2023-12-20T04:31:22;101539.41;;;5.58;94.20
84639;BME280;74869;51.924;5.712;2023-12-20T04:33:48;101533.50;;;5.56;93.82
84639;BME280;74869;51.924;5.712;2023-12-20T04:36:13;101530.25;;;5.54;94.21
84639;BME280;74869;51.924;5.712;2023-12-20T04:38:38;101533.41;;;5.63;93.87
84639;BME280;74869;51.924;5.712;2023-12-20T04:41:04;101535.47;;;5.73;94.13
84639;BME280;74869;51.924;5.712;2023-12-20T04:43:29;101537.22;;;5.79;93.64
84639;BME280;74869;51.924;5.712;2023-12-20T04:45:55;101541.22;;;5.88;94.01
84639;BME280;74869;51.924;5.712;2023-12-20T04:48:20;101534.97;;;5.94;94.09
84639;BME280;74869;51.924;5.712;2023-12-20T04:50:45;101527.06;;;5.99;93.52
84639;BME280;74869;51.924;5.712;2023-12-20T04:53:11;101530.66;;;6.04;93.83
84639;BME280;74869;51.924;5.712;2023-12-20T04:55:36;101534.25;;;6.10;93.59
84639;BME280;74869;51.924;5.712;2023-12-20T04:58:01;101534.34;;;6.15;93.27
84639;BME280;74869;51.924;5.712;2023-12-20T05:00:27;101536.09;;;6.21;93.18
84639;BME280;74869;51.924;5.712;2023-12-20T05:02:52;101527.53;;;6.19;93.58
84639;BME280;74869;51.924;5.712;2023-12-20T05:05:18;101517.56;;;6.26;93.33
84639;BME280;74869;51.924;5.712;2023-12-20T05:07:44;101514.19;;;6.31;93.28
84639;BME280;74869;51.924;5.712;2023-12-20T05:10:09;101519.53;;;6.31;93.23
84639;BME280;74869;51.924;5.712;2023-12-20T05:12:35;101516.25;;;6.29;92.51
84639;BME280;74869;51.924;5.712;2023-12-20T05:15:00;101517.78;;;6.36;93.19
84639;BME280;74869;51.924;5.712;2023-12-20T05:17:26;101509.19;;;6.34;92.64
84639;BME280;74869;51.924;5.712;2023-12-20T05:19:51;101513.25;;;6.37;92.50
84639;BME280;74869;51.924;5.712;2023-12-20T05:22:18;101516.72;;;6.37;92.28
84639;BME280;74869;51.924;5.712;2023-12-20T05:24:43;101502.13;;;6.40;92.38
84639;BME280;74869;51.924;5.712;2023-12-20T05:27:09;101511.03;;;6.46;92.42
84639;BME280;74869;51.924;5.712;2023-12-20T05:29:34;101499.19;;;6.41;92.52
84639;BME280;74869;51.924;5.712;2023-12-20T05:31:59;101501.88;;;6.41;92.05
84639;BME280;74869;51.924;5.712;2023-12-20T05:34:25;101506.03;;;6.49;92.18
84639;BME280;74869;51.924;5.712;2023-12-20T05:36:50;101505.22;;;6.49;91.91
84639;BME280;74869;51.924;5.712;2023-12-20T05:39:15;101512.19;;;6.50;92.06
84639;BME280;74869;51.924;5.712;2023-12-20T05:41:41;101505.22;;;6.49;92.44
84639;BME280;74869;51.924;5.712;2023-12-20T05:44:06;101507.44;;;6.52;91.77
84639;BME280;74869;51.924;5.712;2023-12-20T05:46:33;101501.84;;;6.53;92.40
84639;BME280;74869;51.924;5.712;2023-12-20T05:48:58;101511.31;;;6.61;91.34
84639;BME280;74869;51.924;5.712;2023-12-20T05:51:23;101514.00;;;6.61;91.29
84639;BME280;74869;51.924;5.712;2023-12-20T05:53:51;101515.63;;;6.62;91.51
84639;BME280;74869;51.924;5.712;2023-12-20T05:56:17;101515.63;;;6.62;91.42
84639;BME280;74869;51.924;5.712;2023-12-20T05:58:42;101517.25;;;6.63;91.05
84639;BME280;74869;51.924;5.712;2023-12-20T06:01:08;101511.91;;;6.63;91.20
84639;BME280;74869;51.924;5.712;2023-12-20T06:03:34;101519.34;;;6.61;90.94
84639;BME280;74869;51.924;5.712;2023-12-20T06:06:05;101523.84;;;6.60;91.29
84639;BME280;74869;51.924;5.712;2023-12-20T06:08:31;101511.22;;;6.56;90.77
84639;BME280;74869;51.924;5.712;2023-12-20T06:10:56;101517.69;;;6.60;90.74
84639;BME280;74869;51.924;5.712;2023-12-20T06:13:23;101523.03;;;6.60;90.59
84639;BME280;74869;51.924;5.712;2023-12-20T06:15:48;101518.19;;;6.57;91.09
84639;BME280;74869;51.924;5.712;2023-12-20T06:18:13;101515.28;;;6.58;90.93
84639;BME280;74869;51.924;5.712;2023-12-20T06:20:39;101515.03;;;6.60;90.67
84639;BME280;74869;51.924;5.712;2023-12-20T06:23:04;101519.34;;;6.61;90.64
84639;BME280;74869;51.924;5.712;2023-12-20T06:25:30;101519.34;;;6.61;90.63
84639;BME280;74869;51.924;5.712;2023-12-20T06:27:55;101492.38;;;6.46;90.23
84639;BME280;74869;51.924;5.712;2023-12-20T06:30:20;101520.97;;;6.62;90.73
84639;BME280;74869;51.924;5.712;2023-12-20T06:32:46;101518.06;;;6.63;90.66
84639;BME280;74869;51.924;5.712;2023-12-20T06:35:13;101513.53;;;6.64;90.28
84639;BME280;74869;51.924;5.712;2023-12-20T06:37:38;101502.88;;;6.64;90.21
84639;BME280;74869;51.924;5.712;2023-12-20T06:40:08;101523.41;;;6.63;90.71
84639;BME280;74869;51.924;5.712;2023-12-20T06:42:33;101516.44;;;6.62;90.35
84639;BME280;74869;51.924;5.712;2023-12-20T06:44:59;101509.00;;;6.64;90.17
84639;BME280;74869;51.924;5.712;2023-12-20T06:47:24;101503.31;;;6.61;90.12
84639;BME280;74869;51.924;5.712;2023-12-20T06:49:49;101495.31;;;6.61;90.03
84639;BME280;74869;51.924;5.712;2023-12-20T06:52:15;101500.66;;;6.61;90.02
84639;BME280;74869;51.924;5.712;2023-12-20T06:54:40;101502.88;;;6.64;90.29
84639;BME280;74869;51.924;5.712;2023-12-20T06:57:05;101519.44;;;6.66;90.43
84639;BME280;74869;51.924;5.712;2023-12-20T06:59:31;101511.41;;;6.66;90.28
84639;BME280;74869;51.924;5.712;2023-12-20T07:01:56;101503.09;;;6.62;89.90
84639;BME280;74869;51.924;5.712;2023-12-20T07:04:21;101497.03;;;6.67;90.23
84639;BME280;74869;51.924;5.712;2023-12-20T07:06:48;101492.66;;;6.61;90.03
84639;BME280;74869;51.924;5.712;2023-12-20T07:09:15;101500.75;;;6.66;89.80
84639;BME280;74869;51.924;5.712;2023-12-20T07:11:41;101489.75;;;6.62;90.18
84639;BME280;74869;51.924;5.712;2023-12-20T07:14:06;101486.28;;;6.62;89.76
84639;BME280;74869;51.924;5.712;2023-12-20T07:16:31;101495.09;;;6.62;89.71
84639;BME280;74869;51.924;5.712;2023-12-20T07:18:57;101499.16;;;6.65;90.01
84639;BME280;74869;51.924;5.712;2023-12-20T07:21:22;101489.75;;;6.62;89.84
84639;BME280;74869;51.924;5.712;2023-12-20T07:23:48;101499.97;;;6.65;89.97
84639;BME280;74869;51.924;5.712;2023-12-20T07:26:13;101493.81;;;6.65;90.20
84639;BME280;74869;51.924;5.712;2023-12-20T07:28:38;101492.19;;;6.64;90.35
84639;BME280;74869;51.924;5.712;2023-12-20T07:31:04;101493.81;;;6.65;90.13
84639;BME280;74869;51.924;5.712;2023-12-20T07:33:29;101481.16;;;6.60;90.03
84639;BME280;74869;51.924;5.712;2023-12-20T07:35:55;101489.28;;;6.65;89.95
84639;BME280;74869;51.924;5.712;2023-12-20T07:38:20;101491.69;;;6.67;89.97
84639;BME280;74869;51.924;5.712;2023-12-20T07:40:45;101481.03;;;6.67;90.04
84639;BME280;74869;51.924;5.712;2023-12-20T07:43:11;101481.53;;;6.64;89.72
84639;BME280;74869;51.924;5.712;2023-12-20T07:45:36;101488.00;;;6.68;90.13
84639;BME280;74869;51.924;5.712;2023-12-20T07:48:01;101484.28;;;6.69;90.10
84639;BME280;74869;51.924;5.712;2023-12-20T07:50:27;101494.50;;;6.72;89.89
84639;BME280;74869;51.924;5.712;2023-12-20T07:52:52;101489.47;;;6.75;90.03
84639;BME280;74869;51.924;5.712;2023-12-20T07:55:18;101478.47;;;6.72;90.23
84639;BME280;74869;51.924;5.712;2023-12-20T07:57:43;101497.81;;;6.79;89.94
84639;BME280;74869;51.924;5.712;2023-12-20T08:00:09;101496.22;;;6.78;90.02
84639;BME280;74869;51.924;5.712;2023-12-20T08:02:35;101496.22;;;6.78;89.53
84639;BME280;74869;51.924;5.712;2023-12-20T08:05:00;101510.91;;;6.80;89.38
84639;BME280;74869;51.924;5.712;2023-12-20T08:07:25;101502.44;;;6.83;89.45
84639;BME280;74869;51.924;5.712;2023-12-20T08:09:51;101505.66;;;6.85;89.72
84639;BME280;74869;51.924;5.712;2023-12-20T08:12:17;101508.09;;;6.87;89.97
84639;BME280;74869;51.924;5.712;2023-12-20T08:14:42;101500.69;;;6.89;89.50
84639;BME280;74869;51.924;5.712;2023-12-20T08:17:07;101489.78;;;6.91;89.30
84639;BME280;74869;51.924;5.712;2023-12-20T08:19:33;101499.72;;;6.95;89.31
84639;BME280;74869;51.924;5.712;2023-12-20T08:21:58;101507.81;;;7.00;89.23
84639;BME280;74869;51.924;5.712;2023-12-20T08:24:23;101509.44;;;7.01;89.20
84639;BME280;74869;51.924;5.712;2023-12-20T08:26:49;101501.44;;;7.01;88.86
84639;BME280;74869;51.924;5.712;2023-12-20T08:29:14;101485.34;;;6.96;89.06
84639;BME280;74869;51.924;5.712;2023-12-20T08:31:39;101496.69;;;7.03;88.53
84639;BME280;74869;51.924;5.712;2023-12-20T08:34:05;101492.72;;;7.06;88.81
84639;BME280;74869;51.924;5.712;2023-12-20T08:36:30;101487.13;;;7.07;88.84
84639;BME280;74869;51.924;5.712;2023-12-20T08:38:56;101487.59;;;7.04;88.96
84639;BME280;74869;51.924;5.712;2023-12-20T08:41:21;101501.06;;;7.09;88.78
84639;BME280;74869;51.924;5.712;2023-12-20T08:43:46;101496.53;;;7.10;89.30
84639;BME280;74869;51.924;5.712;2023-12-20T08:46:14;101491.19;;;7.10;88.77
84639;BME280;74869;51.924;5.712;2023-12-20T08:48:39;101496.19;;;7.06;89.05
84639;BME280;74869;51.924;5.712;2023-12-20T08:51:05;101481.31;;;7.10;88.66
84639;BME280;74869;51.924;5.712;2023-12-20T08:53:33;101489.41;;;7.15;88.70
84639;BME280;74869;51.924;5.712;2023-12-20T08:56:00;101500.41;;;7.19;88.21
84639;BME280;74869;51.924;5.712;2023-12-20T08:58:27;101486.47;;;7.17;88.67
84639;BME280;74869;51.924;5.712;2023-12-20T09:00:53;101474.53;;;7.19;88.88
84639;BME280;74869;51.924;5.712;2023-12-20T09:03:19;101482.06;;;7.22;88.59
84639;BME280;74869;51.924;5.712;2023-12-20T09:05:44;101486.69;;;7.27;88.64
84639;BME280;74869;51.924;5.712;2023-12-20T09:08:10;101480.22;;;7.23;88.46
84639;BME280;74869;51.924;5.712;2023-12-20T09:10:37;101489.13;;;7.29;88.32
84639;BME280;74869;51.924;5.712;2023-12-20T09:13:03;101485.88;;;7.27;88.27
84639;BME280;74869;51.924;5.712;2023-12-20T09:15:29;101489.59;;;7.25;88.54
84639;BME280;74869;51.924;5.712;2023-12-20T09:17:55;101494.13;;;7.25;88.44
84639;BME280;74869;51.924;5.712;2023-12-20T09:20:21;101492.75;;;7.22;88.49
84639;BME280;74869;51.924;5.712;2023-12-20T09:22:47;101492.16;;;7.20;88.63
84639;BME280;74869;51.924;5.712;2023-12-20T09:25:12;101488.38;;;7.16;88.82
84639;BME280;74869;51.924;5.712;2023-12-20T09:27:39;101488.09;;;7.18;88.92
84639;BME280;74869;51.924;5.712;2023-12-20T09:30:05;101482.78;;;7.18;88.99
84639;BME280;74869;51.924;5.712;2023-12-20T09:32:31;101486.84;;;7.20;89.00
84639;BME280;74869;51.924;5.712;2023-12-20T09:34:56;101479.88;;;7.19;88.95
84639;BME280;74869;51.924;5.712;2023-12-20T09:37:25;101482.44;;;7.14;88.63
84639;BME280;74869;51.924;5.712;2023-12-20T09:39:51;101483.81;;;7.17;89.03
84639;BME280;74869;51.924;5.712;2023-12-20T09:42:23;101493.56;;;7.23;89.29
84639;BME280;74869;51.924;5.712;2023-12-20T09:44:49;101474.06;;;7.22;89.76
84639;BME280;74869;51.924;5.712;2023-12-20T09:47:15;101479.72;;;7.26;89.18
84639;BME280;74869;51.924;5.712;2023-12-20T09:49:43;101486.19;;;7.30;89.39
84639;BME280;74869;51.924;5.712;2023-12-20T09:52:11;101481.66;;;7.31;89.44
84639;BME280;74869;51.924;5.712;2023-12-20T09:54:38;101479.56;;;7.33;89.37
84639;BME280;74869;51.924;5.712;2023-12-20T09:57:04;101480.84;;;7.30;89.18
84639;BME280;74869;51.924;5.712;2023-12-20T09:59:29;101483.28;;;7.32;89.22
84639;BME280;74869;51.924;5.712;2023-12-20T10:01:55;101480.69;;;7.37;89.31
84639;BME280;74869;51.924;5.712;2023-12-20T10:04:22;101481.19;;;7.34;89.05
84639;BME280;74869;51.924;5.712;2023-12-20T10:06:47;101477.94;;;7.32;89.29
84639;BME280;74869;51.924;5.712;2023-12-20T10:09:13;101470.97;;;7.31;89.43
84639;BME280;74869;51.924;5.712;2023-12-20T10:11:39;101483.94;;;7.39;89.02
84639;BME280;74869;51.924;5.712;2023-12-20T10:14:07;101490.91;;;7.40;89.47
84639;BME280;74869;51.924;5.712;2023-12-20T10:16:33;101497.88;;;7.41;89.31
84639;BME280;74869;51.924;5.712;2023-12-20T10:19:00;101501.09;;;7.43;89.29
84639;BME280;74869;51.924;5.712;2023-12-20T10:21:26;101498.69;;;7.41;89.64
84639;BME280;74869;51.924;5.712;2023-12-20T10:23:54;101508.63;;;7.46;89.97
84639;BME280;74869;51.924;5.712;2023-12-20T10:26:24;101512.44;;;7.50;89.69
84639;BME280;74869;51.924;5.712;2023-12-20T10:28:51;101504.41;;;7.50;89.82
84639;BME280;74869;51.924;5.712;2023-12-20T10:31:27;101497.53;;;7.54;89.26
84639;BME280;74869;51.924;5.712;2023-12-20T10:33:55;101497.28;;;7.55;89.22
84639;BME280;74869;51.924;5.712;2023-12-20T10:36:20;101494.88;;;7.54;89.30
84639;BME280;74869;51.924;5.712;2023-12-20T10:38:48;101492.19;;;7.54;89.61
84639;BME280;74869;51.924;5.712;2023-12-20T10:41:16;101484.66;;;7.51;89.51
84639;BME280;74869;51.924;5.712;2023-12-20T10:43:43;101496.75;;;7.53;89.31
84639;BME280;74869;51.924;5.712;2023-12-20T10:46:10;101483.13;;;7.55;89.50
84639;BME280;74869;51.924;5.712;2023-12-20T10:48:35;101478.03;;;7.53;89.60
84639;BME280;74869;51.924;5.712;2023-12-20T10:51:01;101476.16;;;7.54;89.66
84639;BME280;74869;51.924;5.712;2023-12-20T10:53:30;101482.63;;;7.58;89.02
84639;BME280;74869;51.924;5.712;2023-12-20T10:55:56;101479.38;;;7.56;89.93
84639;BME280;74869;51.924;5.712;2023-12-20T10:58:26;101470.09;;;7.58;89.67
84639;BME280;74869;51.924;5.712;2023-12-20T11:01:00;101466.59;;;7.58;89.96
84639;BME280;74869;51.924;5.712;2023-12-20T11:03:27;101466.13;;;7.61;89.57
84639;BME280;74869;51.924;5.712;2023-12-20T11:08:36;101457.13;;;7.67;89.52
84639;BME280;74869;51.924;5.712;2023-12-20T11:11:20;101446.50;;;7.72;89.57
84639;BME280;74869;51.924;5.712;2023-12-20T11:13:59;101443.09;;;7.77;89.94
84639;BME280;74869;51.924;5.712;2023-12-20T11:16:27;101443.91;;;7.77;89.70
84639;BME280;74869;51.924;5.712;2023-12-20T11:18:53;101436.47;;;7.79;89.43
84639;BME280;74869;51.924;5.712;2023-12-20T11:21:19;101439.25;;;7.89;89.08
84639;BME280;74869;51.924;5.712;2023-12-20T11:23:45;101436.66;;;7.94;89.80
84639;BME280;74869;51.924;5.712;2023-12-20T11:26:10;101439.31;;;7.94;89.17
84639;BME280;74869;51.924;5.712;2023-12-20T11:28:36;101429.13;;;7.91;89.88
84639;BME280;74869;51.924;5.712;2023-12-20T11:31:02;101437.22;;;7.96;89.42
84639;BME280;74869;51.924;5.712;2023-12-20T11:33:35;101450.16;;;8.04;89.20
84639;BME280;74869;51.924;5.712;2023-12-20T11:36:01;101438.97;;;8.07;89.36
84639;BME280;74869;51.924;5.712;2023-12-20T11:38:27;101432.31;;;8.10;89.70
84639;BME280;74869;51.924;5.712;2023-12-20T11:40:54;101434.50;;;8.13;89.05
84639;BME280;74869;51.924;5.712;2023-12-20T11:43:31;101421.69;;;8.15;89.42
84639;BME280;74869;51.924;5.712;2023-12-20T11:46:07;101425.78;;;8.23;89.49
84639;BME280;74869;51.924;5.712;2023-12-20T11:48:39;101419.44;;;8.29;89.33
84639;BME280;74869;51.924;5.712;2023-12-20T11:51:12;101404.19;;;8.29;88.96
84639;BME280;74869;51.924;5.712;2023-12-20T11:53:41;101412.13;;;8.41;89.49
84639;BME280;74869;51.924;5.712;2023-12-20T11:56:10;101412.25;;;8.51;88.76
84639;BME280;74869;51.924;5.712;2023-12-20T11:58:35;101412.28;;;8.56;88.73
84639;BME280;74869;51.924;5.712;2023-12-20T12:01:00;101406.69;;;8.58;88.72
84639;BME280;74869;51.924;5.712;2023-12-20T12:03:29;101406.84;;;8.73;88.85
84639;BME280;74869;51.924;5.712;2023-12-20T12:05:55;101407.69;;;8.78;87.81
84639;BME280;74869;51.924;5.712;2023-12-20T12:08:21;101413.66;;;8.85;88.29
84639;BME280;74869;51.924;5.712;2023-12-20T12:10:46;101403.53;;;8.93;87.54
84639;BME280;74869;51.924;5.712;2023-12-20T12:13:11;101400.91;;;8.98;87.36
84639;BME280;74869;51.924;5.712;2023-12-20T12:15:37;101414.34;;;9.03;87.07
84639;BME280;74869;51.924;5.712;2023-12-20T12:18:03;101399.88;;;9.04;86.93
84639;BME280;74869;51.924;5.712;2023-12-20T12:20:29;101413.34;;;9.09;86.89
84639;BME280;74869;51.924;5.712;2023-12-20T12:23:05;101378.97;;;9.01;85.98
84639;BME280;74869;51.924;5.712;2023-12-20T12:25:32;101401.59;;;9.15;86.36
84639;BME280;74869;51.924;5.712;2023-12-20T12:27:58;101396.25;;;9.15;86.42
84639;BME280;74869;51.924;5.712;2023-12-20T12:30:23;101397.84;;;9.16;86.20
84639;BME280;74869;51.924;5.712;2023-12-20T12:32:50;101399.97;;;9.14;86.53
84639;BME280;74869;51.924;5.712;2023-12-20T12:35:16;101391.38;;;9.12;86.02
84639;BME280;74869;51.924;5.712;2023-12-20T12:37:43;101396.16;;;9.05;85.89
84639;BME280;74869;51.924;5.712;2023-12-20T12:40:15;101393.88;;;8.92;86.18
84639;BME280;74869;51.924;5.712;2023-12-20T12:42:42;101386.06;;;8.85;86.14
84639;BME280;74869;51.924;5.712;2023-12-20T12:45:08;101375.06;;;8.81;85.88
84639;BME280;74869;51.924;5.712;2023-12-20T12:47:34;101371.00;;;8.79;85.86
84639;BME280;74869;51.924;5.712;2023-12-20T12:49:59;101364.25;;;8.71;85.91
84639;BME280;74869;51.924;5.712;2023-12-20T12:52:26;101363.41;;;8.66;85.82
84639;BME280;74869;51.924;5.712;2023-12-20T12:54:52;101365.25;;;8.65;86.04
84639;BME280;74869;51.924;5.712;2023-12-20T12:57:18;101372.75;;;8.63;86.46